MNA120 WIII-WIBB
Flight info
| Callsign | MNA120 |
|---|---|
| Flight time | 1h 16m |
| Altitude | 34000 |
| Route | GOME1B GOMEL T10 OVSET OVSE1A |
| Aircraft | B722/M-SDFGHRWY/C |
Departure
| Time | 2026-04-25 09:21 |
|---|---|
| Airport | Soekarno-Hatta International Airport (WIII) |
Arrival
| Time | 2026-04-25 10:38 |
|---|---|
| Airport | Sultan Syarif Kasim II International Airport / Roesmin Nurjadin AFB (WIBB) |
| Time | Latitude | Longitude | Altitude | Speed | Heading |
|---|---|---|---|---|---|
| 2026-04-25 08:46 | -6.12035 | 106.65077 | 0 ft | 0 kts | 146° |
| 2026-04-25 08:47 | -6.12035 | 106.65076 | 0 ft | 0 kts | 146° |
| 2026-04-25 09:02 | -6.12034 | 106.65076 | 14 ft | 0 kts | 146° |
| 2026-04-25 09:08 | -6.12033 | 106.65075 | 41 ft | 2 kts | 146° |
| 2026-04-25 09:09 | -6.12012 | 106.65062 | 38 ft | 4 kts | 150° |
| 2026-04-25 09:09 | -6.11988 | 106.65049 | 36 ft | 4 kts | 155° |
| 2026-04-25 09:09 | -6.11962 | 106.65040 | 39 ft | 4 kts | 166° |
| 2026-04-25 09:09 | -6.11937 | 106.65038 | 40 ft | 4 kts | 192° |
| 2026-04-25 09:10 | -6.11923 | 106.65045 | 37 ft | 0 kts | 221° |
| 2026-04-25 09:10 | -6.11922 | 106.65045 | 37 ft | 0 kts | 221° |
| 2026-04-25 09:15 | -6.11924 | 106.65044 | 37 ft | 2 kts | 221° |
| 2026-04-25 09:15 | -6.11940 | 106.65028 | 41 ft | 1 kts | 256° |
| 2026-04-25 09:15 | -6.11938 | 106.65022 | 38 ft | 1 kts | 296° |
| 2026-04-25 09:16 | -6.11921 | 106.65009 | 42 ft | 6 kts | 332° |
| 2026-04-25 09:16 | -6.11876 | 106.64980 | 40 ft | 9 kts | 307° |
| 2026-04-25 09:16 | -6.11876 | 106.64916 | 42 ft | 11 kts | 251° |
| 2026-04-25 09:16 | -6.11907 | 106.64836 | 40 ft | 7 kts | 248° |
| 2026-04-25 09:17 | -6.11908 | 106.64834 | 41 ft | 0 kts | 248° |
| 2026-04-25 09:17 | -6.11912 | 106.64825 | 42 ft | 6 kts | 248° |
| 2026-04-25 09:17 | -6.11944 | 106.64747 | 39 ft | 18 kts | 247° |
| 2026-04-25 09:18 | -6.11997 | 106.64618 | 42 ft | 21 kts | 248° |
| 2026-04-25 09:18 | -6.12052 | 106.64475 | 41 ft | 23 kts | 249° |
| 2026-04-25 09:18 | -6.12112 | 106.64322 | 41 ft | 24 kts | 248° |
| 2026-04-25 09:18 | -6.12176 | 106.64161 | 39 ft | 23 kts | 248° |
| 2026-04-25 09:19 | -6.12236 | 106.64011 | 42 ft | 22 kts | 249° |
| 2026-04-25 09:19 | -6.12235 | 106.63903 | 42 ft | 11 kts | 317° |
| 2026-04-25 09:19 | -6.12159 | 106.63886 | 39 ft | 10 kts | 15° |
| 2026-04-25 09:19 | -6.12092 | 106.63911 | 42 ft | 10 kts | 36° |
| 2026-04-25 09:20 | -6.12064 | 106.63955 | 41 ft | 7 kts | 69° |
| 2026-04-25 09:20 | -6.12040 | 106.64014 | 39 ft | 12 kts | 68° |
| 2026-04-25 09:20 | -6.11970 | 106.64189 | 40 ft | 55 kts | 68° |
| 2026-04-25 09:20 | -6.11750 | 106.64742 | 42 ft | 113 kts | 68° |
| 2026-04-25 09:21 | -6.11396 | 106.65597 | 209 ft | 142 kts | 66° |
| 2026-04-25 09:21 | -6.11042 | 106.66507 | 840 ft | 134 kts | 66° |
| 2026-04-25 09:21 | -6.10559 | 106.67321 | 1300 ft | 142 kts | 39° |
| 2026-04-25 09:21 | -6.09744 | 106.67894 | 1797 ft | 147 kts | 36° |
| 2026-04-25 09:22 | -6.08819 | 106.68495 | 2122 ft | 168 kts | 35° |
| 2026-04-25 09:22 | -6.07818 | 106.69139 | 2654 ft | 174 kts | 37° |
| 2026-04-25 09:22 | -6.06763 | 106.69854 | 2978 ft | 192 kts | 38° |
| 2026-04-25 09:22 | -6.05632 | 106.70636 | 3453 ft | 201 kts | 37° |
| 2026-04-25 09:23 | -6.04454 | 106.71427 | 3966 ft | 212 kts | 36° |
| 2026-04-25 09:23 | -6.03179 | 106.72261 | 4441 ft | 229 kts | 36° |
| 2026-04-25 09:23 | -6.01778 | 106.73195 | 4952 ft | 253 kts | 36° |
| 2026-04-25 09:23 | -6.00100 | 106.74086 | 5013 ft | 298 kts | 19° |
| 2026-04-25 09:24 | -5.98018 | 106.74200 | 5015 ft | 295 kts | 353° |
| 2026-04-25 09:24 | -5.96177 | 106.73464 | 5008 ft | 279 kts | 329° |
| 2026-04-25 09:24 | -5.94826 | 106.72102 | 4988 ft | 275 kts | 306° |
| 2026-04-25 09:24 | -5.93898 | 106.70435 | 4994 ft | 273 kts | 296° |
| 2026-04-25 09:25 | -5.93180 | 106.68671 | 4997 ft | 273 kts | 294° |
| 2026-04-25 09:25 | -5.92417 | 106.66900 | 4999 ft | 279 kts | 297° |
| 2026-04-25 09:25 | -5.91557 | 106.65112 | 5010 ft | 289 kts | 298° |
| 2026-04-25 09:25 | -5.90682 | 106.63282 | 5014 ft | 299 kts | 297° |
| 2026-04-25 09:26 | -5.89787 | 106.61334 | 5019 ft | 305 kts | 296° |
| 2026-04-25 09:26 | -5.88897 | 106.59404 | 5486 ft | 311 kts | 297° |
| 2026-04-25 09:26 | -5.87999 | 106.57482 | 6737 ft | 301 kts | 297° |
| 2026-04-25 09:26 | -5.87093 | 106.55548 | 7468 ft | 310 kts | 297° |
| 2026-04-25 09:27 | -5.86175 | 106.53578 | 8288 ft | 312 kts | 297° |
| 2026-04-25 09:27 | -5.85254 | 106.51599 | 9136 ft | 315 kts | 297° |
| 2026-04-25 09:27 | -5.84319 | 106.49592 | 9913 ft | 318 kts | 297° |
| 2026-04-25 09:27 | -5.83373 | 106.47567 | 10614 ft | 322 kts | 297° |
| 2026-04-25 09:28 | -5.82416 | 106.45514 | 11313 ft | 327 kts | 297° |
| 2026-04-25 09:28 | -5.81450 | 106.43431 | 12076 ft | 331 kts | 296° |
| 2026-04-25 09:28 | -5.80471 | 106.41320 | 12824 ft | 335 kts | 296° |
| 2026-04-25 09:28 | -5.79479 | 106.39181 | 13468 ft | 344 kts | 296° |
| 2026-04-25 09:29 | -5.78443 | 106.36955 | 13837 ft | 361 kts | 296° |
| 2026-04-25 09:29 | -5.77345 | 106.34593 | 13857 ft | 387 kts | 296° |
| 2026-04-25 09:29 | -5.76169 | 106.32061 | 13856 ft | 412 kts | 296° |
| 2026-04-25 09:29 | -5.74911 | 106.29386 | 13859 ft | 429 kts | 298° |
| 2026-04-25 09:30 | -5.73299 | 106.26967 | 13850 ft | 406 kts | 312° |
| 2026-04-25 09:30 | -5.71347 | 106.25026 | 13939 ft | 393 kts | 320° |
| 2026-04-25 09:30 | -5.69197 | 106.23269 | 14313 ft | 399 kts | 325° |
| 2026-04-25 09:30 | -5.66969 | 106.21615 | 15044 ft | 398 kts | 325° |
| 2026-04-25 09:31 | -5.64765 | 106.19889 | 15569 ft | 403 kts | 322° |
| 2026-04-25 09:31 | -5.63330 | 106.18699 | 15958 ft | 405 kts | 322° |
| 2026-04-25 09:31 | -5.60658 | 106.16513 | 16677 ft | 408 kts | 323° |
| 2026-04-25 09:31 | -5.58413 | 106.14755 | 17202 ft | 411 kts | 324° |
| 2026-04-25 09:32 | -5.56154 | 106.12982 | 17764 ft | 414 kts | 323° |
| 2026-04-25 09:32 | -5.53925 | 106.11190 | 18272 ft | 417 kts | 323° |
| 2026-04-25 09:32 | -5.51658 | 106.09362 | 18727 ft | 420 kts | 323° |
| 2026-04-25 09:32 | -5.49360 | 106.07534 | 19160 ft | 423 kts | 323° |
| 2026-04-25 09:33 | -5.47037 | 106.05696 | 19603 ft | 426 kts | 323° |
| 2026-04-25 09:33 | -5.44705 | 106.03837 | 20029 ft | 430 kts | 323° |
| 2026-04-25 09:33 | -5.42363 | 106.01962 | 20451 ft | 433 kts | 323° |
| 2026-04-25 09:33 | -5.39995 | 106.00075 | 20878 ft | 436 kts | 323° |
| 2026-04-25 09:34 | -5.37600 | 105.98177 | 21280 ft | 439 kts | 323° |
| 2026-04-25 09:34 | -5.35190 | 105.96263 | 21695 ft | 442 kts | 323° |
| 2026-04-25 09:34 | -5.32798 | 105.94358 | 22095 ft | 446 kts | 323° |
| 2026-04-25 09:34 | -5.30363 | 105.92419 | 22496 ft | 449 kts | 323° |
| 2026-04-25 09:35 | -5.27911 | 105.90471 | 22883 ft | 451 kts | 323° |
| 2026-04-25 09:35 | -5.25439 | 105.88508 | 23145 ft | 453 kts | 323° |
| 2026-04-25 09:35 | -5.23793 | 105.87200 | 23211 ft | 455 kts | 323° |
| 2026-04-25 09:35 | -5.21312 | 105.85225 | 23400 ft | 456 kts | 323° |
| 2026-04-25 09:36 | -5.18815 | 105.83246 | 23569 ft | 458 kts | 323° |
| 2026-04-25 09:36 | -5.16269 | 105.81328 | 23719 ft | 459 kts | 326° |
| 2026-04-25 09:36 | -5.13636 | 105.79522 | 23871 ft | 459 kts | 327° |
| 2026-04-25 09:36 | -5.10987 | 105.77722 | 24032 ft | 460 kts | 326° |
| 2026-04-25 09:37 | -5.08376 | 105.75836 | 24173 ft | 462 kts | 324° |
| 2026-04-25 09:37 | -5.05780 | 105.73927 | 24329 ft | 463 kts | 325° |
| 2026-04-25 09:37 | -5.03144 | 105.72060 | 24472 ft | 464 kts | 326° |
| 2026-04-25 09:37 | -5.00492 | 105.70217 | 24616 ft | 465 kts | 326° |
| 2026-04-25 09:38 | -4.97846 | 105.68338 | 24746 ft | 466 kts | 325° |
| 2026-04-25 09:38 | -4.95209 | 105.66437 | 24893 ft | 467 kts | 325° |
| 2026-04-25 09:38 | -4.92593 | 105.64570 | 25028 ft | 468 kts | 326° |
| 2026-04-25 09:38 | -4.89925 | 105.62690 | 25181 ft | 470 kts | 326° |
| 2026-04-25 09:39 | -4.87248 | 105.60795 | 25510 ft | 471 kts | 326° |
| 2026-04-25 09:39 | -4.84569 | 105.58883 | 25837 ft | 473 kts | 325° |
| 2026-04-25 09:39 | -4.81875 | 105.56960 | 26109 ft | 476 kts | 325° |
| 2026-04-25 09:40 | -4.76441 | 105.53110 | 26697 ft | 479 kts | 325° |
| 2026-04-25 09:40 | -4.73722 | 105.51176 | 26966 ft | 482 kts | 325° |
| 2026-04-25 09:40 | -4.70977 | 105.49222 | 27241 ft | 483 kts | 325° |
| 2026-04-25 09:40 | -4.68224 | 105.47266 | 27502 ft | 485 kts | 325° |
| 2026-04-25 09:41 | -4.65502 | 105.45337 | 27770 ft | 486 kts | 325° |
| 2026-04-25 09:41 | -4.62734 | 105.43371 | 28018 ft | 488 kts | 325° |
| 2026-04-25 09:41 | -4.59961 | 105.41400 | 28284 ft | 490 kts | 325° |
| 2026-04-25 09:41 | -4.57175 | 105.39422 | 28514 ft | 491 kts | 325° |
| 2026-04-25 09:42 | -4.54375 | 105.37435 | 28751 ft | 493 kts | 325° |
| 2026-04-25 09:42 | -4.51574 | 105.35447 | 28985 ft | 494 kts | 325° |
| 2026-04-25 09:42 | -4.48758 | 105.33448 | 29190 ft | 495 kts | 325° |
| 2026-04-25 09:42 | -4.45940 | 105.31448 | 29299 ft | 497 kts | 325° |
| 2026-04-25 09:43 | -4.43114 | 105.29443 | 29468 ft | 498 kts | 325° |
| 2026-04-25 09:43 | -4.40284 | 105.27435 | 29619 ft | 499 kts | 325° |
| 2026-04-25 09:43 | -4.37456 | 105.25427 | 29773 ft | 499 kts | 325° |
| 2026-04-25 09:43 | -4.34617 | 105.23413 | 29901 ft | 501 kts | 325° |
| 2026-04-25 09:44 | -4.31776 | 105.21399 | 30144 ft | 498 kts | 325° |
| 2026-04-25 09:44 | -4.28958 | 105.19401 | 30493 ft | 493 kts | 325° |
| 2026-04-25 09:44 | -4.26164 | 105.17417 | 30874 ft | 488 kts | 325° |
| 2026-04-25 09:44 | -4.23427 | 105.15476 | 31062 ft | 488 kts | 325° |
| 2026-04-25 09:45 | -4.20653 | 105.13510 | 31230 ft | 489 kts | 325° |
| 2026-04-25 09:45 | -4.17870 | 105.11537 | 31381 ft | 490 kts | 325° |
| 2026-04-25 09:45 | -4.15083 | 105.09560 | 31498 ft | 491 kts | 326° |
| 2026-04-25 09:45 | -4.12295 | 105.07583 | 31635 ft | 492 kts | 325° |
| 2026-04-25 09:46 | -4.09530 | 105.05550 | 31746 ft | 494 kts | 323° |
| 2026-04-25 09:46 | -4.06908 | 105.03308 | 31867 ft | 496 kts | 317° |
| 2026-04-25 09:46 | -4.04447 | 105.00877 | 31996 ft | 497 kts | 315° |
| 2026-04-25 09:46 | -4.02024 | 104.98397 | 32122 ft | 498 kts | 316° |
| 2026-04-25 09:47 | -3.99488 | 104.96033 | 32227 ft | 499 kts | 319° |
| 2026-04-25 09:47 | -3.96878 | 104.93738 | 32361 ft | 500 kts | 319° |
| 2026-04-25 09:47 | -3.94322 | 104.91373 | 32475 ft | 501 kts | 317° |
| 2026-04-25 09:47 | -3.91814 | 104.88930 | 32603 ft | 502 kts | 316° |
| 2026-04-25 09:48 | -3.89276 | 104.86517 | 32719 ft | 503 kts | 318° |
| 2026-04-25 09:48 | -3.86689 | 104.84154 | 32829 ft | 504 kts | 319° |
| 2026-04-25 09:48 | -3.84107 | 104.81778 | 32939 ft | 505 kts | 317° |
| 2026-04-25 09:48 | -3.81552 | 104.79356 | 33058 ft | 506 kts | 317° |
| 2026-04-25 09:49 | -3.78996 | 104.76930 | 33226 ft | 507 kts | 317° |
| 2026-04-25 09:49 | -3.76436 | 104.74552 | 33365 ft | 508 kts | 318° |
| 2026-04-25 09:49 | -3.73844 | 104.72155 | 33504 ft | 509 kts | 318° |
| 2026-04-25 09:49 | -3.71252 | 104.69727 | 33643 ft | 510 kts | 317° |
| 2026-04-25 09:50 | -3.68663 | 104.67286 | 33779 ft | 511 kts | 317° |
| 2026-04-25 09:50 | -3.66058 | 104.64849 | 33857 ft | 511 kts | 318° |
| 2026-04-25 09:50 | -3.60923 | 104.60067 | 33857 ft | 504 kts | 317° |
| 2026-04-25 09:51 | -3.58432 | 104.57730 | 33854 ft | 481 kts | 317° |
| 2026-04-25 09:51 | -3.56010 | 104.55463 | 33849 ft | 473 kts | 318° |
| 2026-04-25 09:51 | -3.51318 | 104.51088 | 33850 ft | 479 kts | 318° |
| 2026-04-25 09:52 | -3.46485 | 104.46565 | 33854 ft | 478 kts | 318° |
| 2026-04-25 09:52 | -3.41621 | 104.42026 | 33862 ft | 478 kts | 318° |
| 2026-04-25 09:53 | -3.36757 | 104.37480 | 33857 ft | 479 kts | 318° |
| 2026-04-25 09:53 | -3.31885 | 104.32932 | 33862 ft | 478 kts | 318° |
| 2026-04-25 09:54 | -3.27016 | 104.28382 | 33862 ft | 478 kts | 318° |
| 2026-04-25 09:54 | -3.22151 | 104.23841 | 33863 ft | 478 kts | 318° |
| 2026-04-25 09:55 | -3.17288 | 104.19301 | 33861 ft | 478 kts | 318° |
| 2026-04-25 09:55 | -3.12424 | 104.14761 | 33861 ft | 477 kts | 318° |
| 2026-04-25 09:56 | -3.07562 | 104.10223 | 33867 ft | 477 kts | 318° |
| 2026-04-25 09:56 | -3.02731 | 104.05715 | 33863 ft | 478 kts | 318° |
| 2026-04-25 09:57 | -2.97868 | 104.01178 | 33863 ft | 478 kts | 318° |
| 2026-04-25 09:57 | -2.93006 | 103.96641 | 33861 ft | 478 kts | 318° |
| 2026-04-25 09:58 | -2.88141 | 103.92103 | 33857 ft | 478 kts | 318° |
| 2026-04-25 09:58 | -2.83271 | 103.87562 | 33860 ft | 478 kts | 318° |
| 2026-04-25 09:59 | -2.78402 | 103.83021 | 33864 ft | 478 kts | 318° |
| 2026-04-25 09:59 | -2.73568 | 103.78513 | 33864 ft | 478 kts | 318° |
| 2026-04-25 10:00 | -2.68698 | 103.73972 | 33862 ft | 478 kts | 318° |
| 2026-04-25 10:00 | -2.63829 | 103.69434 | 33863 ft | 478 kts | 318° |
| 2026-04-25 10:01 | -2.58959 | 103.64893 | 33861 ft | 478 kts | 318° |
| 2026-04-25 10:01 | -2.54116 | 103.60380 | 33865 ft | 478 kts | 318° |
| 2026-04-25 10:02 | -2.49246 | 103.55841 | 33864 ft | 478 kts | 318° |
| 2026-04-25 10:02 | -2.44376 | 103.51303 | 33873 ft | 478 kts | 318° |
| 2026-04-25 10:03 | -2.39511 | 103.46771 | 33866 ft | 477 kts | 318° |
| 2026-04-25 10:03 | -2.34646 | 103.42237 | 33866 ft | 477 kts | 318° |
| 2026-04-25 10:04 | -2.29817 | 103.37733 | 33867 ft | 477 kts | 317° |
| 2026-04-25 10:04 | -2.24970 | 103.33200 | 33867 ft | 477 kts | 318° |
| 2026-04-25 10:05 | -2.20113 | 103.28666 | 33866 ft | 477 kts | 318° |
| 2026-04-25 10:05 | -2.15264 | 103.24135 | 33871 ft | 478 kts | 318° |
| 2026-04-25 10:06 | -2.10403 | 103.19596 | 33867 ft | 478 kts | 318° |
| 2026-04-25 10:06 | -2.05545 | 103.15059 | 33866 ft | 478 kts | 318° |
| 2026-04-25 10:07 | -2.00673 | 103.10510 | 33868 ft | 479 kts | 318° |
| 2026-04-25 10:07 | -1.95796 | 103.05956 | 33868 ft | 480 kts | 318° |
| 2026-04-25 10:08 | -1.90947 | 103.01429 | 33871 ft | 480 kts | 318° |
| 2026-04-25 10:08 | -1.86062 | 102.96869 | 33866 ft | 481 kts | 317° |
| 2026-04-25 10:09 | -1.81166 | 102.92298 | 33871 ft | 481 kts | 318° |
| 2026-04-25 10:09 | -1.76271 | 102.87729 | 33871 ft | 481 kts | 317° |
| 2026-04-25 10:10 | -1.71376 | 102.83160 | 33874 ft | 481 kts | 317° |
| 2026-04-25 10:10 | -1.66485 | 102.78596 | 33874 ft | 481 kts | 318° |
| 2026-04-25 10:11 | -1.61586 | 102.74024 | 33869 ft | 481 kts | 317° |
| 2026-04-25 10:11 | -1.56667 | 102.69501 | 33871 ft | 480 kts | 322° |
| 2026-04-25 10:12 | -1.51186 | 102.65797 | 33876 ft | 479 kts | 331° |
| 2026-04-25 10:13 | -1.42668 | 102.60569 | 33876 ft | 479 kts | 327° |
| 2026-04-25 10:13 | -1.37021 | 102.57025 | 33874 ft | 478 kts | 330° |
| 2026-04-25 10:14 | -1.31383 | 102.53497 | 33875 ft | 479 kts | 328° |
| 2026-04-25 10:14 | -1.25779 | 102.49949 | 33875 ft | 478 kts | 329° |
| 2026-04-25 10:15 | -1.20136 | 102.46425 | 33872 ft | 478 kts | 328° |
| 2026-04-25 10:15 | -1.14505 | 102.42866 | 33870 ft | 479 kts | 329° |
| 2026-04-25 10:16 | -1.08860 | 102.39333 | 33866 ft | 479 kts | 329° |
| 2026-04-25 10:16 | -1.03160 | 102.35865 | 33871 ft | 479 kts | 330° |
| 2026-04-25 10:17 | -0.97004 | 102.33447 | 33863 ft | 477 kts | 351° |
| 2026-04-25 10:17 | -0.90439 | 102.33016 | 33518 ft | 475 kts | 2° |
| 2026-04-25 10:17 | -0.87142 | 102.33147 | 33244 ft | 472 kts | 4° |
| 2026-04-25 10:18 | -0.83851 | 102.33275 | 32971 ft | 475 kts | 2° |
| 2026-04-25 10:18 | -0.80533 | 102.33249 | 32634 ft | 479 kts | 360° |
| 2026-04-25 10:18 | -0.77186 | 102.33185 | 32304 ft | 482 kts | 1° |
| 2026-04-25 10:18 | -0.73819 | 102.33217 | 31975 ft | 485 kts | 2° |
| 2026-04-25 10:19 | -0.70445 | 102.33294 | 31650 ft | 487 kts | 2° |
| 2026-04-25 10:19 | -0.67048 | 102.33316 | 31327 ft | 485 kts | 1° |
| 2026-04-25 10:19 | -0.63716 | 102.33295 | 30910 ft | 471 kts | 1° |
| 2026-04-25 10:19 | -0.60490 | 102.33302 | 30491 ft | 457 kts | 1° |
| 2026-04-25 10:20 | -0.57360 | 102.33341 | 30033 ft | 445 kts | 1° |
| 2026-04-25 10:20 | -0.54298 | 102.33310 | 29495 ft | 435 kts | 355° |
| 2026-04-25 10:20 | -0.51355 | 102.32753 | 28958 ft | 427 kts | 344° |
| 2026-04-25 10:20 | -0.48628 | 102.31663 | 28440 ft | 420 kts | 333° |
| 2026-04-25 10:21 | -0.46185 | 102.30095 | 27917 ft | 415 kts | 322° |
| 2026-04-25 10:21 | -0.44013 | 102.28221 | 27368 ft | 411 kts | 317° |
| 2026-04-25 10:21 | -0.41988 | 102.26199 | 26849 ft | 409 kts | 314° |
| 2026-04-25 10:21 | -0.40024 | 102.24163 | 26329 ft | 408 kts | 315° |
| 2026-04-25 10:22 | -0.38009 | 102.22221 | 25828 ft | 407 kts | 318° |
| 2026-04-25 10:22 | -0.36601 | 102.20913 | 25489 ft | 407 kts | 318° |
| 2026-04-25 10:22 | -0.33904 | 102.18326 | 24838 ft | 406 kts | 316° |
| 2026-04-25 10:22 | -0.31892 | 102.16332 | 24354 ft | 406 kts | 316° |
| 2026-04-25 10:23 | -0.29860 | 102.14353 | 23881 ft | 411 kts | 317° |
| 2026-04-25 10:23 | -0.27787 | 102.12367 | 23418 ft | 414 kts | 317° |
| 2026-04-25 10:23 | -0.25702 | 102.10354 | 22864 ft | 416 kts | 317° |
| 2026-04-25 10:23 | -0.23643 | 102.08345 | 22386 ft | 410 kts | 316° |
| 2026-04-25 10:24 | -0.21613 | 102.06370 | 21939 ft | 404 kts | 317° |
| 2026-04-25 10:24 | -0.20283 | 102.05084 | 21648 ft | 400 kts | 317° |
| 2026-04-25 10:24 | -0.17654 | 102.02544 | 21059 ft | 394 kts | 317° |
| 2026-04-25 10:24 | -0.15707 | 102.00655 | 20627 ft | 389 kts | 317° |
| 2026-04-25 10:25 | -0.13762 | 101.98770 | 20188 ft | 385 kts | 317° |
| 2026-04-25 10:25 | -0.12466 | 101.97515 | 19911 ft | 383 kts | 317° |
| 2026-04-25 10:25 | -0.10567 | 101.95676 | 19492 ft | 379 kts | 317° |
| 2026-04-25 10:25 | -0.08680 | 101.93845 | 19083 ft | 376 kts | 317° |
| 2026-04-25 10:26 | -0.06833 | 101.92054 | 18685 ft | 374 kts | 317° |
| 2026-04-25 10:26 | -0.04970 | 101.90249 | 18281 ft | 371 kts | 317° |
| 2026-04-25 10:26 | -0.03125 | 101.88461 | 17756 ft | 369 kts | 317° |
| 2026-04-25 10:26 | -0.01285 | 101.86677 | 17204 ft | 367 kts | 317° |
| 2026-04-25 10:27 | 0.00542 | 101.84905 | 16675 ft | 365 kts | 317° |
| 2026-04-25 10:27 | 0.02365 | 101.83138 | 16125 ft | 363 kts | 317° |
| 2026-04-25 10:27 | 0.04174 | 101.81385 | 15605 ft | 361 kts | 317° |
| 2026-04-25 10:27 | 0.05970 | 101.79644 | 15091 ft | 359 kts | 317° |
| 2026-04-25 10:28 | 0.07765 | 101.77904 | 14583 ft | 358 kts | 317° |
| 2026-04-25 10:28 | 0.09553 | 101.76172 | 14078 ft | 356 kts | 317° |
| 2026-04-25 10:28 | 0.11273 | 101.74432 | 13457 ft | 345 kts | 311° |
| 2026-04-25 10:28 | 0.12546 | 101.72431 | 12475 ft | 338 kts | 295° |
| 2026-04-25 10:29 | 0.13325 | 101.70278 | 11569 ft | 331 kts | 286° |
| 2026-04-25 10:29 | 0.13848 | 101.68058 | 10677 ft | 325 kts | 281° |
| 2026-04-25 10:29 | 0.14260 | 101.65853 | 9803 ft | 320 kts | 281° |
| 2026-04-25 10:29 | 0.14731 | 101.63691 | 8865 ft | 316 kts | 284° |
| 2026-04-25 10:30 | 0.15246 | 101.61576 | 7949 ft | 312 kts | 284° |
| 2026-04-25 10:30 | 0.15734 | 101.59491 | 7295 ft | 302 kts | 283° |
| 2026-04-25 10:30 | 0.16180 | 101.57481 | 6702 ft | 291 kts | 283° |
| 2026-04-25 10:30 | 0.16615 | 101.55539 | 6172 ft | 282 kts | 283° |
| 2026-04-25 10:31 | 0.17048 | 101.53655 | 5623 ft | 277 kts | 283° |
| 2026-04-25 10:31 | 0.17481 | 101.51767 | 5171 ft | 280 kts | 283° |
| 2026-04-25 10:31 | 0.17910 | 101.49870 | 4797 ft | 279 kts | 283° |
| 2026-04-25 10:31 | 0.18336 | 101.47990 | 4412 ft | 272 kts | 283° |
| 2026-04-25 10:32 | 0.18954 | 101.46267 | 3999 ft | 259 kts | 300° |
| 2026-04-25 10:32 | 0.20039 | 101.44858 | 3446 ft | 253 kts | 317° |
| 2026-04-25 10:32 | 0.21435 | 101.43863 | 2994 ft | 241 kts | 335° |
| 2026-04-25 10:32 | 0.22928 | 101.43333 | 2990 ft | 222 kts | 349° |
| 2026-04-25 10:33 | 0.24415 | 101.43259 | 2971 ft | 203 kts | 13° |
| 2026-04-25 10:33 | 0.25693 | 101.43681 | 2993 ft | 184 kts | 21° |
| 2026-04-25 10:33 | 0.26867 | 101.43936 | 2974 ft | 168 kts | 4° |
| 2026-04-25 10:33 | 0.28050 | 101.43941 | 2983 ft | 176 kts | 2° |
| 2026-04-25 10:34 | 0.29399 | 101.43968 | 3026 ft | 209 kts | 4° |
| 2026-04-25 10:34 | 0.30804 | 101.44019 | 2768 ft | 202 kts | 3° |
| 2026-04-25 10:34 | 0.32187 | 101.44047 | 2487 ft | 195 kts | 3° |
| 2026-04-25 10:34 | 0.33515 | 101.44095 | 2240 ft | 187 kts | 3° |
| 2026-04-25 10:35 | 0.34794 | 101.44122 | 1986 ft | 180 kts | 3° |
| 2026-04-25 10:35 | 0.36016 | 101.44168 | 1761 ft | 172 kts | 4° |
| 2026-04-25 10:35 | 0.37187 | 101.44192 | 1542 ft | 162 kts | 2° |
| 2026-04-25 10:35 | 0.38264 | 101.44230 | 1324 ft | 146 kts | 4° |
| 2026-04-25 10:36 | 0.39239 | 101.44253 | 1157 ft | 136 kts | 3° |
| 2026-04-25 10:36 | 0.40148 | 101.44282 | 993 ft | 130 kts | 4° |
| 2026-04-25 10:36 | 0.41096 | 101.44313 | 867 ft | 140 kts | 360° |
| 2026-04-25 10:36 | 0.42098 | 101.44331 | 689 ft | 151 kts | 0° |
| 2026-04-25 10:37 | 0.43167 | 101.44376 | 476 ft | 150 kts | 1° |
| 2026-04-25 10:37 | 0.44176 | 101.44408 | 289 ft | 140 kts | 359° |
| 2026-04-25 10:37 | 0.45141 | 101.44425 | 136 ft | 132 kts | 360° |
| 2026-04-25 10:37 | 0.45902 | 101.44447 | 130 ft | 77 kts | 1° |
| 2026-04-25 10:38 | 0.46264 | 101.44458 | 131 ft | 31 kts | 1° |
| 2026-04-25 10:38 | 0.46375 | 101.44473 | 132 ft | 0 kts | 59° |
| 2026-04-25 10:38 | 0.46377 | 101.44477 | 132 ft | 3 kts | 65° |
| 2026-04-25 10:38 | 0.46380 | 101.44514 | 132 ft | 7 kts | 92° |
| 2026-04-25 10:39 | 0.46386 | 101.44576 | 129 ft | 7 kts | 56° |
| 2026-04-25 10:39 | 0.46428 | 101.44589 | 131 ft | 5 kts | 4° |
| 2026-04-25 10:39 | 0.46469 | 101.44592 | 130 ft | 4 kts | 11° |
| 2026-04-25 10:39 | 0.46482 | 101.44615 | 128 ft | 5 kts | 85° |
| 2026-04-25 10:40 | 0.46481 | 101.44660 | 127 ft | 0 kts | 91° |
| 2026-04-25 10:40 | 0.46481 | 101.44663 | 127 ft | 2 kts | 91° |
| 2026-04-25 10:40 | 0.46481 | 101.44674 | 129 ft | 0 kts | 91° |